Hlavní strana
METAR-TAF:

METAR-TAF

Letiště :

Coles County Memorial Airport

Mattoon / Charleston, Illinois, Spojené státy americké

zeměpisná šířka: 39-28-41N, zeměpisná délka: 088-16-45W, výška: 220 m

Aktuální stav počasí

Zpráva byla vytvořena před 43 minutami, v 17:53 UTC
Jihojihozápadní vítr 6 kt s nárazy do 15 kt
Teplota 17°C
Vlhkost vzduchu 68%
Tlak 1018 hPa
Viditelnost: 16.1 km
Oblačno až skoro zataženo ve výšce 4000 ft
Zataženo ve výšce 4900 ft

METAR: KMTO 061753Z AUTO 21006G15KT 10SM BKN040 OVC049 17/11 A3006 RMK AO2 SLP181 T01670106 10167 20089 58012

Čas: 13:36 (18:36 UTC)


TAF: chybějící

Stav a předpovědi počasí z více než 4 000 letišť (zprávy METAR a TAF).

Červené a žluté tečky na mapě představují dostupné meteorologické stanice.

Když kurzor umístíte na tečku, zobrazí se název stanice.

Pak kliknutím zobrazíte stav a předpověď počasí.

Chcete-li změnit mapu, kliknutím na zelené tlačítko se znaménkem +mapu přiblížíte, kliknutím na zelené tlačítko se znaménkem – mapu oddálíte a kliknutím na zelené šipky přejdete na sousední mapy.


METAR-TAF: